sensor_id;sensor_type;location;lat;lon;timestamp;P1;durP1;ratioP1;P2;durP2;ratioP2
77146;SDS011;66121;52.584;9.694;2023-05-07T00:00:08;22.88;;;12.93;;
77146;SDS011;66121;52.584;9.694;2023-05-07T00:02:34;22.50;;;13.20;;
77146;SDS011;66121;52.584;9.694;2023-05-07T00:04:59;22.23;;;12.88;;
77146;SDS011;66121;52.584;9.694;2023-05-07T00:07:24;27.58;;;14.88;;
77146;SDS011;66121;52.584;9.694;2023-05-07T00:09:50;26.50;;;14.23;;
77146;SDS011;66121;52.584;9.694;2023-05-07T00:12:15;23.20;;;12.43;;
77146;SDS011;66121;52.584;9.694;2023-05-07T00:14:41;23.10;;;13.48;;
77146;SDS011;66121;52.584;9.694;2023-05-07T00:17:06;24.90;;;13.65;;
77146;SDS011;66121;52.584;9.694;2023-05-07T00:19:31;25.27;;;14.15;;
77146;SDS011;66121;52.584;9.694;2023-05-07T00:21:57;25.43;;;13.93;;
77146;SDS011;66121;52.584;9.694;2023-05-07T00:24:23;25.27;;;12.95;;
77146;SDS011;66121;52.584;9.694;2023-05-07T00:26:49;24.90;;;14.50;;
77146;SDS011;66121;52.584;9.694;2023-05-07T00:29:14;28.33;;;14.88;;
77146;SDS011;66121;52.584;9.694;2023-05-07T00:31:40;22.10;;;12.50;;
77146;SDS011;66121;52.584;9.694;2023-05-07T00:34:05;23.93;;;12.80;;
77146;SDS011;66121;52.584;9.694;2023-05-07T00:36:31;27.30;;;13.57;;
77146;SDS011;66121;52.584;9.694;2023-05-07T00:38:56;22.15;;;12.27;;
77146;SDS011;66121;52.584;9.694;2023-05-07T00:41:24;24.80;;;12.88;;
77146;SDS011;66121;52.584;9.694;2023-05-07T00:43:50;26.35;;;15.35;;
77146;SDS011;66121;52.584;9.694;2023-05-07T00:46:16;27.02;;;14.25;;
77146;SDS011;66121;52.584;9.694;2023-05-07T00:48:42;25.38;;;14.15;;
77146;SDS011;66121;52.584;9.694;2023-05-07T00:51:07;26.40;;;12.52;;
77146;SDS011;66121;52.584;9.694;2023-05-07T00:53:34;22.75;;;12.00;;
77146;SDS011;66121;52.584;9.694;2023-05-07T00:55:59;29.73;;;13.93;;
77146;SDS011;66121;52.584;9.694;2023-05-07T00:58:25;25.45;;;14.20;;
77146;SDS011;66121;52.584;9.694;2023-05-07T01:00:51;26.38;;;12.90;;
77146;SDS011;66121;52.584;9.694;2023-05-07T01:03:16;22.50;;;12.57;;
77146;SDS011;66121;52.584;9.694;2023-05-07T01:05:42;21.60;;;12.43;;
77146;SDS011;66121;52.584;9.694;2023-05-07T01:08:08;24.98;;;13.35;;
77146;SDS011;66121;52.584;9.694;2023-05-07T01:10:33;27.25;;;14.52;;
77146;SDS011;66121;52.584;9.694;2023-05-07T01:12:59;24.27;;;14.05;;
77146;SDS011;66121;52.584;9.694;2023-05-07T01:15:25;26.35;;;13.30;;
77146;SDS011;66121;52.584;9.694;2023-05-07T01:17:50;24.73;;;13.90;;
77146;SDS011;66121;52.584;9.694;2023-05-07T01:20:17;25.92;;;13.73;;
77146;SDS011;66121;52.584;9.694;2023-05-07T01:22:43;23.35;;;12.98;;
77146;SDS011;66121;52.584;9.694;2023-05-07T01:25:09;26.45;;;13.85;;
77146;SDS011;66121;52.584;9.694;2023-05-07T01:27:35;27.97;;;15.00;;
77146;SDS011;66121;52.584;9.694;2023-05-07T01:30:02;26.48;;;14.52;;
77146;SDS011;66121;52.584;9.694;2023-05-07T01:32:36;25.77;;;13.90;;
77146;SDS011;66121;52.584;9.694;2023-05-07T01:35:07;28.00;;;14.32;;
77146;SDS011;66121;52.584;9.694;2023-05-07T01:37:35;26.73;;;14.05;;
77146;SDS011;66121;52.584;9.694;2023-05-07T01:40:02;28.48;;;14.63;;
77146;SDS011;66121;52.584;9.694;2023-05-07T01:42:28;29.58;;;14.90;;
77146;SDS011;66121;52.584;9.694;2023-05-07T01:44:54;27.20;;;14.85;;
77146;SDS011;66121;52.584;9.694;2023-05-07T01:47:20;32.25;;;17.27;;
77146;SDS011;66121;52.584;9.694;2023-05-07T01:49:46;29.23;;;15.35;;
77146;SDS011;66121;52.584;9.694;2023-05-07T01:52:11;29.60;;;15.43;;
77146;SDS011;66121;52.584;9.694;2023-05-07T01:54:37;33.37;;;17.17;;
77146;SDS011;66121;52.584;9.694;2023-05-07T01:57:02;31.45;;;15.52;;
77146;SDS011;66121;52.584;9.694;2023-05-07T01:59:27;31.15;;;16.88;;
77146;SDS011;66121;52.584;9.694;2023-05-07T02:01:53;34.23;;;18.10;;
77146;SDS011;66121;52.584;9.694;2023-05-07T02:04:18;29.67;;;16.33;;
77146;SDS011;66121;52.584;9.694;2023-05-07T02:06:43;32.60;;;16.20;;
77146;SDS011;66121;52.584;9.694;2023-05-07T02:09:08;30.40;;;16.20;;
77146;SDS011;66121;52.584;9.694;2023-05-07T02:11:34;23.33;;;14.07;;
77146;SDS011;66121;52.584;9.694;2023-05-07T02:13:59;28.65;;;14.88;;
77146;SDS011;66121;52.584;9.694;2023-05-07T02:16:25;27.57;;;14.67;;
77146;SDS011;66121;52.584;9.694;2023-05-07T02:18:50;28.02;;;14.60;;
77146;SDS011;66121;52.584;9.694;2023-05-07T02:21:15;28.40;;;14.00;;
77146;SDS011;66121;52.584;9.694;2023-05-07T02:23:40;32.20;;;14.87;;
77146;SDS011;66121;52.584;9.694;2023-05-07T02:26:06;27.90;;;13.63;;
77146;SDS011;66121;52.584;9.694;2023-05-07T02:28:31;25.50;;;13.33;;
77146;SDS011;66121;52.584;9.694;2023-05-07T02:30:56;24.70;;;13.70;;
77146;SDS011;66121;52.584;9.694;2023-05-07T02:33:23;25.00;;;11.35;;
77146;SDS011;66121;52.584;9.694;2023-05-07T02:35:48;26.15;;;13.40;;
77146;SDS011;66121;52.584;9.694;2023-05-07T02:38:14;30.93;;;13.97;;
77146;SDS011;66121;52.584;9.694;2023-05-07T02:40:39;25.83;;;13.27;;
77146;SDS011;66121;52.584;9.694;2023-05-07T02:43:05;29.73;;;13.88;;
77146;SDS011;66121;52.584;9.694;2023-05-07T02:45:30;31.90;;;15.23;;
77146;SDS011;66121;52.584;9.694;2023-05-07T02:47:57;28.08;;;14.23;;
77146;SDS011;66121;52.584;9.694;2023-05-07T02:50:22;28.80;;;14.77;;
77146;SDS011;66121;52.584;9.694;2023-05-07T02:52:47;29.83;;;13.73;;
77146;SDS011;66121;52.584;9.694;2023-05-07T02:55:13;25.65;;;13.85;;
77146;SDS011;66121;52.584;9.694;2023-05-07T02:57:38;23.63;;;13.02;;
77146;SDS011;66121;52.584;9.694;2023-05-07T03:00:10;27.90;;;14.10;;
77146;SDS011;66121;52.584;9.694;2023-05-07T03:02:37;27.48;;;15.25;;
77146;SDS011;66121;52.584;9.694;2023-05-07T03:05:02;30.23;;;15.20;;
77146;SDS011;66121;52.584;9.694;2023-05-07T03:07:28;28.63;;;14.18;;
77146;SDS011;66121;52.584;9.694;2023-05-07T03:09:53;29.17;;;14.53;;
77146;SDS011;66121;52.584;9.694;2023-05-07T03:12:19;27.60;;;14.03;;
77146;SDS011;66121;52.584;9.694;2023-05-07T03:14:44;25.87;;;12.33;;
77146;SDS011;66121;52.584;9.694;2023-05-07T03:17:09;24.35;;;13.77;;
77146;SDS011;66121;52.584;9.694;2023-05-07T03:19:35;23.93;;;12.13;;
77146;SDS011;66121;52.584;9.694;2023-05-07T03:22:00;24.85;;;12.70;;
77146;SDS011;66121;52.584;9.694;2023-05-07T03:24:25;23.52;;;12.05;;
77146;SDS011;66121;52.584;9.694;2023-05-07T03:26:51;29.20;;;12.75;;
77146;SDS011;66121;52.584;9.694;2023-05-07T03:29:16;18.80;;;9.53;;
77146;SDS011;66121;52.584;9.694;2023-05-07T03:31:41;20.10;;;11.33;;
77146;SDS011;66121;52.584;9.694;2023-05-07T03:34:06;18.40;;;9.90;;
77146;SDS011;66121;52.584;9.694;2023-05-07T03:36:32;20.93;;;10.03;;
77146;SDS011;66121;52.584;9.694;2023-05-07T03:38:57;24.10;;;11.67;;
77146;SDS011;66121;52.584;9.694;2023-05-07T03:41:22;17.07;;;8.50;;
77146;SDS011;66121;52.584;9.694;2023-05-07T03:43:48;18.08;;;10.30;;
77146;SDS011;66121;52.584;9.694;2023-05-07T03:46:13;18.57;;;10.20;;
77146;SDS011;66121;52.584;9.694;2023-05-07T03:48:38;18.50;;;9.63;;
77146;SDS011;66121;52.584;9.694;2023-05-07T03:51:03;14.67;;;8.33;;
77146;SDS011;66121;52.584;9.694;2023-05-07T03:53:29;18.90;;;10.00;;
77146;SDS011;66121;52.584;9.694;2023-05-07T03:55:54;20.03;;;10.30;;
77146;SDS011;66121;52.584;9.694;2023-05-07T03:58:20;14.98;;;9.27;;
77146;SDS011;66121;52.584;9.694;2023-05-07T04:00:45;17.40;;;9.23;;
77146;SDS011;66121;52.584;9.694;2023-05-07T04:03:10;17.77;;;9.02;;
77146;SDS011;66121;52.584;9.694;2023-05-07T04:05:35;17.57;;;9.70;;
77146;SDS011;66121;52.584;9.694;2023-05-07T04:08:01;19.05;;;9.30;;
77146;SDS011;66121;52.584;9.694;2023-05-07T04:10:27;15.95;;;8.93;;
77146;SDS011;66121;52.584;9.694;2023-05-07T04:12:53;20.50;;;9.88;;
77146;SDS011;66121;52.584;9.694;2023-05-07T04:15:18;17.35;;;8.88;;
77146;SDS011;66121;52.584;9.694;2023-05-07T04:17:44;17.17;;;8.67;;
77146;SDS011;66121;52.584;9.694;2023-05-07T04:20:09;15.23;;;9.10;;
77146;SDS011;66121;52.584;9.694;2023-05-07T04:22:35;18.70;;;10.27;;
77146;SDS011;66121;52.584;9.694;2023-05-07T04:25:01;16.73;;;9.02;;
77146;SDS011;66121;52.584;9.694;2023-05-07T04:27:27;18.00;;;9.02;;
77146;SDS011;66121;52.584;9.694;2023-05-07T04:29:53;17.13;;;9.95;;
77146;SDS011;66121;52.584;9.694;2023-05-07T04:32:20;20.25;;;10.55;;
77146;SDS011;66121;52.584;9.694;2023-05-07T04:34:46;19.02;;;9.32;;
77146;SDS011;66121;52.584;9.694;2023-05-07T04:37:11;18.10;;;9.30;;
77146;SDS011;66121;52.584;9.694;2023-05-07T04:39:37;20.40;;;10.60;;
77146;SDS011;66121;52.584;9.694;2023-05-07T04:42:02;18.17;;;10.30;;
77146;SDS011;66121;52.584;9.694;2023-05-07T04:44:28;17.15;;;8.98;;
77146;SDS011;66121;52.584;9.694;2023-05-07T04:46:55;16.95;;;9.45;;
77146;SDS011;66121;52.584;9.694;2023-05-07T04:49:21;22.45;;;10.35;;
77146;SDS011;66121;52.584;9.694;2023-05-07T04:51:46;18.47;;;10.20;;
77146;SDS011;66121;52.584;9.694;2023-05-07T04:54:11;18.70;;;9.73;;
77146;SDS011;66121;52.584;9.694;2023-05-07T04:56:37;12.97;;;8.13;;
77146;SDS011;66121;52.584;9.694;2023-05-07T04:59:02;17.67;;;10.13;;
77146;SDS011;66121;52.584;9.694;2023-05-07T05:01:27;20.42;;;10.57;;
77146;SDS011;66121;52.584;9.694;2023-05-07T05:03:53;19.63;;;11.15;;
77146;SDS011;66121;52.584;9.694;2023-05-07T05:06:18;21.90;;;10.38;;
77146;SDS011;66121;52.584;9.694;2023-05-07T05:08:43;21.33;;;10.87;;
77146;SDS011;66121;52.584;9.694;2023-05-07T05:11:09;17.07;;;9.80;;
77146;SDS011;66121;52.584;9.694;2023-05-07T05:13:34;19.17;;;10.43;;
77146;SDS011;66121;52.584;9.694;2023-05-07T05:15:59;17.87;;;10.00;;
77146;SDS011;66121;52.584;9.694;2023-05-07T05:18:25;17.77;;;9.73;;
77146;SDS011;66121;52.584;9.694;2023-05-07T05:20:51;16.60;;;9.97;;
77146;SDS011;66121;52.584;9.694;2023-05-07T05:23:16;17.75;;;10.68;;
77146;SDS011;66121;52.584;9.694;2023-05-07T05:25:41;19.03;;;9.70;;
77146;SDS011;66121;52.584;9.694;2023-05-07T05:28:07;20.23;;;10.17;;
77146;SDS011;66121;52.584;9.694;2023-05-07T05:30:32;20.87;;;10.87;;
77146;SDS011;66121;52.584;9.694;2023-05-07T05:32:57;18.02;;;9.80;;
77146;SDS011;66121;52.584;9.694;2023-05-07T05:35:23;16.17;;;9.67;;
77146;SDS011;66121;52.584;9.694;2023-05-07T05:37:48;19.50;;;10.73;;
77146;SDS011;66121;52.584;9.694;2023-05-07T05:40:13;15.30;;;9.00;;
77146;SDS011;66121;52.584;9.694;2023-05-07T05:42:39;18.47;;;9.37;;
77146;SDS011;66121;52.584;9.694;2023-05-07T05:45:04;20.20;;;10.27;;
77146;SDS011;66121;52.584;9.694;2023-05-07T05:47:30;17.25;;;10.15;;
77146;SDS011;66121;52.584;9.694;2023-05-07T05:49:55;16.23;;;8.97;;
77146;SDS011;66121;52.584;9.694;2023-05-07T05:52:21;16.52;;;9.10;;
77146;SDS011;66121;52.584;9.694;2023-05-07T05:54:48;15.60;;;9.27;;
77146;SDS011;66121;52.584;9.694;2023-05-07T05:57:14;14.98;;;9.93;;
77146;SDS011;66121;52.584;9.694;2023-05-07T05:59:39;16.58;;;8.40;;
77146;SDS011;66121;52.584;9.694;2023-05-07T06:02:04;15.73;;;8.70;;
77146;SDS011;66121;52.584;9.694;2023-05-07T06:04:31;13.20;;;8.20;;
77146;SDS011;66121;52.584;9.694;2023-05-07T06:06:57;14.45;;;8.73;;
77146;SDS011;66121;52.584;9.694;2023-05-07T06:09:24;13.48;;;8.60;;
77146;SDS011;66121;52.584;9.694;2023-05-07T06:11:49;16.30;;;10.10;;
77146;SDS011;66121;52.584;9.694;2023-05-07T06:14:14;13.40;;;8.70;;
77146;SDS011;66121;52.584;9.694;2023-05-07T06:16:40;17.10;;;9.87;;
77146;SDS011;66121;52.584;9.694;2023-05-07T06:19:05;16.20;;;9.70;;
77146;SDS011;66121;52.584;9.694;2023-05-07T06:21:30;13.75;;;8.73;;
77146;SDS011;66121;52.584;9.694;2023-05-07T06:23:56;16.25;;;9.32;;
77146;SDS011;66121;52.584;9.694;2023-05-07T06:26:21;14.53;;;8.47;;
77146;SDS011;66121;52.584;9.694;2023-05-07T06:28:47;12.63;;;8.70;;
77146;SDS011;66121;52.584;9.694;2023-05-07T06:31:13;14.75;;;8.63;;
77146;SDS011;66121;52.584;9.694;2023-05-07T06:33:39;13.45;;;8.43;;
77146;SDS011;66121;52.584;9.694;2023-05-07T06:36:05;13.88;;;9.50;;
77146;SDS011;66121;52.584;9.694;2023-05-07T06:38:30;13.73;;;8.75;;
77146;SDS011;66121;52.584;9.694;2023-05-07T06:40:56;17.70;;;9.63;;
77146;SDS011;66121;52.584;9.694;2023-05-07T06:43:22;17.95;;;10.18;;
77146;SDS011;66121;52.584;9.694;2023-05-07T06:45:47;13.48;;;8.50;;
77146;SDS011;66121;52.584;9.694;2023-05-07T06:48:12;15.23;;;9.53;;
77146;SDS011;66121;52.584;9.694;2023-05-07T06:50:38;14.47;;;9.20;;
77146;SDS011;66121;52.584;9.694;2023-05-07T06:53:03;17.00;;;10.27;;
77146;SDS011;66121;52.584;9.694;2023-05-07T06:55:28;14.20;;;9.55;;
77146;SDS011;66121;52.584;9.694;2023-05-07T06:57:53;13.60;;;9.33;;
77146;SDS011;66121;52.584;9.694;2023-05-07T07:00:19;13.97;;;9.53;;
77146;SDS011;66121;52.584;9.694;2023-05-07T07:02:44;14.52;;;9.02;;
77146;SDS011;66121;52.584;9.694;2023-05-07T07:05:10;13.68;;;8.10;;
77146;SDS011;66121;52.584;9.694;2023-05-07T07:07:35;12.88;;;8.45;;
77146;SDS011;66121;52.584;9.694;2023-05-07T07:10:01;11.07;;;6.97;;
77146;SDS011;66121;52.584;9.694;2023-05-07T07:12:27;10.45;;;6.97;;
77146;SDS011;66121;52.584;9.694;2023-05-07T07:14:53;13.18;;;8.40;;
77146;SDS011;66121;52.584;9.694;2023-05-07T07:17:19;12.93;;;8.15;;
77146;SDS011;66121;52.584;9.694;2023-05-07T07:19:44;14.18;;;8.60;;
77146;SDS011;66121;52.584;9.694;2023-05-07T07:22:09;15.20;;;8.57;;
77146;SDS011;66121;52.584;9.694;2023-05-07T07:24:35;14.05;;;8.95;;
77146;SDS011;66121;52.584;9.694;2023-05-07T07:27:00;10.35;;;7.03;;
77146;SDS011;66121;52.584;9.694;2023-05-07T07:29:25;13.63;;;9.43;;
77146;SDS011;66121;52.584;9.694;2023-05-07T07:31:51;12.15;;;8.90;;
77146;SDS011;66121;52.584;9.694;2023-05-07T07:34:16;13.87;;;9.40;;
77146;SDS011;66121;52.584;9.694;2023-05-07T07:36:42;12.00;;;8.10;;
77146;SDS011;66121;52.584;9.694;2023-05-07T07:39:07;14.38;;;9.77;;
77146;SDS011;66121;52.584;9.694;2023-05-07T07:41:33;13.90;;;9.52;;
77146;SDS011;66121;52.584;9.694;2023-05-07T07:43:58;14.05;;;9.35;;
77146;SDS011;66121;52.584;9.694;2023-05-07T07:46:24;14.57;;;9.88;;
77146;SDS011;66121;52.584;9.694;2023-05-07T07:48:49;13.57;;;9.90;;
77146;SDS011;66121;52.584;9.694;2023-05-07T07:51:14;14.73;;;10.13;;
77146;SDS011;66121;52.584;9.694;2023-05-07T07:53:40;14.73;;;9.07;;
77146;SDS011;66121;52.584;9.694;2023-05-07T07:56:06;12.43;;;8.88;;
77146;SDS011;66121;52.584;9.694;2023-05-07T07:58:31;14.07;;;9.80;;
77146;SDS011;66121;52.584;9.694;2023-05-07T08:00:56;16.87;;;11.50;;
77146;SDS011;66121;52.584;9.694;2023-05-07T08:03:22;14.50;;;9.73;;
77146;SDS011;66121;52.584;9.694;2023-05-07T08:05:47;16.40;;;11.35;;
77146;SDS011;66121;52.584;9.694;2023-05-07T08:08:14;21.65;;;12.20;;
77146;SDS011;66121;52.584;9.694;2023-05-07T08:10:40;18.70;;;12.57;;
77146;SDS011;66121;52.584;9.694;2023-05-07T08:13:05;13.38;;;9.20;;
77146;SDS011;66121;52.584;9.694;2023-05-07T08:15:31;13.50;;;8.82;;
77146;SDS011;66121;52.584;9.694;2023-05-07T08:17:56;12.37;;;8.83;;
77146;SDS011;66121;52.584;9.694;2023-05-07T08:20:23;13.68;;;10.25;;
77146;SDS011;66121;52.584;9.694;2023-05-07T08:22:48;12.63;;;8.70;;
77146;SDS011;66121;52.584;9.694;2023-05-07T08:25:13;14.47;;;10.10;;
77146;SDS011;66121;52.584;9.694;2023-05-07T08:27:39;11.57;;;8.80;;
77146;SDS011;66121;52.584;9.694;2023-05-07T08:30:04;14.35;;;9.27;;
77146;SDS011;66121;52.584;9.694;2023-05-07T08:32:30;14.70;;;9.90;;
77146;SDS011;66121;52.584;9.694;2023-05-07T08:34:55;12.43;;;8.60;;
77146;SDS011;66121;52.584;9.694;2023-05-07T08:37:20;12.60;;;8.50;;
77146;SDS011;66121;52.584;9.694;2023-05-07T08:39:46;17.10;;;8.90;;
77146;SDS011;66121;52.584;9.694;2023-05-07T08:42:11;12.77;;;8.40;;
77146;SDS011;66121;52.584;9.694;2023-05-07T08:44:39;12.48;;;7.80;;
77146;SDS011;66121;52.584;9.694;2023-05-07T08:47:08;15.00;;;8.45;;
77146;SDS011;66121;52.584;9.694;2023-05-07T08:49:33;12.15;;;9.10;;
77146;SDS011;66121;52.584;9.694;2023-05-07T08:52:00;12.25;;;8.60;;
77146;SDS011;66121;52.584;9.694;2023-05-07T08:54:26;13.63;;;8.35;;
77146;SDS011;66121;52.584;9.694;2023-05-07T08:56:52;11.40;;;8.00;;
77146;SDS011;66121;52.584;9.694;2023-05-07T08:59:18;12.38;;;8.00;;
77146;SDS011;66121;52.584;9.694;2023-05-07T09:01:43;13.33;;;9.17;;
77146;SDS011;66121;52.584;9.694;2023-05-07T09:04:08;10.85;;;7.35;;
77146;SDS011;66121;52.584;9.694;2023-05-07T09:06:34;12.70;;;8.30;;
77146;SDS011;66121;52.584;9.694;2023-05-07T09:09:00;10.35;;;7.90;;
77146;SDS011;66121;52.584;9.694;2023-05-07T09:11:26;11.52;;;7.85;;
77146;SDS011;66121;52.584;9.694;2023-05-07T09:13:55;13.30;;;8.20;;
77146;SDS011;66121;52.584;9.694;2023-05-07T09:16:21;11.30;;;7.80;;
77146;SDS011;66121;52.584;9.694;2023-05-07T09:18:48;13.65;;;8.60;;
77146;SDS011;66121;52.584;9.694;2023-05-07T09:21:17;11.02;;;7.78;;
77146;SDS011;66121;52.584;9.694;2023-05-07T09:23:43;13.02;;;8.52;;
77146;SDS011;66121;52.584;9.694;2023-05-07T09:26:08;9.98;;;7.15;;
77146;SDS011;66121;52.584;9.694;2023-05-07T09:28:43;13.25;;;7.95;;
77146;SDS011;66121;52.584;9.694;2023-05-07T09:31:09;10.65;;;8.13;;
77146;SDS011;66121;52.584;9.694;2023-05-07T09:33:35;13.73;;;8.88;;
77146;SDS011;66121;52.584;9.694;2023-05-07T09:36:07;13.18;;;8.40;;
77146;SDS011;66121;52.584;9.694;2023-05-07T09:38:34;11.85;;;8.13;;
77146;SDS011;66121;52.584;9.694;2023-05-07T09:41:07;13.73;;;9.18;;
77146;SDS011;66121;52.584;9.694;2023-05-07T09:43:37;11.60;;;7.63;;
77146;SDS011;66121;52.584;9.694;2023-05-07T09:46:07;12.13;;;8.02;;
77146;SDS011;66121;52.584;9.694;2023-05-07T09:48:42;11.15;;;7.10;;
77146;SDS011;66121;52.584;9.694;2023-05-07T09:51:22;10.35;;;8.02;;
77146;SDS011;66121;52.584;9.694;2023-05-07T09:53:52;11.52;;;7.88;;
77146;SDS011;66121;52.584;9.694;2023-05-07T09:56:18;11.55;;;7.82;;
77146;SDS011;66121;52.584;9.694;2023-05-07T09:58:44;10.38;;;7.22;;
77146;SDS011;66121;52.584;9.694;2023-05-07T10:01:11;9.63;;;7.00;;
77146;SDS011;66121;52.584;9.694;2023-05-07T10:03:39;10.30;;;7.70;;
77146;SDS011;66121;52.584;9.694;2023-05-07T10:06:06;10.38;;;7.93;;
77146;SDS011;66121;52.584;9.694;2023-05-07T10:08:33;10.80;;;8.35;;
77146;SDS011;66121;52.584;9.694;2023-05-07T10:11:00;9.35;;;7.68;;
77146;SDS011;66121;52.584;9.694;2023-05-07T10:13:26;9.23;;;6.72;;
77146;SDS011;66121;52.584;9.694;2023-05-07T10:15:52;11.35;;;7.85;;
77146;SDS011;66121;52.584;9.694;2023-05-07T10:18:18;7.80;;;6.75;;
77146;SDS011;66121;52.584;9.694;2023-05-07T10:20:47;11.00;;;7.95;;
77146;SDS011;66121;52.584;9.694;2023-05-07T10:23:14;10.23;;;7.72;;
77146;SDS011;66121;52.584;9.694;2023-05-07T10:25:47;11.15;;;8.45;;
77146;SDS011;66121;52.584;9.694;2023-05-07T10:28:13;24.10;;;13.85;;
77146;SDS011;66121;52.584;9.694;2023-05-07T10:33:33;11.05;;;8.75;;
77146;SDS011;66121;52.584;9.694;2023-05-07T10:36:00;11.70;;;9.73;;
77146;SDS011;66121;52.584;9.694;2023-05-07T10:38:29;10.68;;;9.25;;
77146;SDS011;66121;52.584;9.694;2023-05-07T10:40:55;11.55;;;9.18;;
77146;SDS011;66121;52.584;9.694;2023-05-07T10:43:20;11.43;;;9.18;;
77146;SDS011;66121;52.584;9.694;2023-05-07T10:51:33;8.25;;;6.93;;
77146;SDS011;66121;52.584;9.694;2023-05-07T10:56:34;10.15;;;8.05;;
77146;SDS011;66121;52.584;9.694;2023-05-07T11:01:53;8.70;;;7.00;;
77146;SDS011;66121;52.584;9.694;2023-05-07T11:04:29;10.52;;;7.75;;
77146;SDS011;66121;52.584;9.694;2023-05-07T11:07:30;9.43;;;6.68;;
77146;SDS011;66121;52.584;9.694;2023-05-07T11:17:35;9.23;;;7.13;;
77146;SDS011;66121;52.584;9.694;2023-05-07T11:20:17;11.23;;;8.55;;
77146;SDS011;66121;52.584;9.694;2023-05-07T11:22:43;10.27;;;7.53;;
77146;SDS011;66121;52.584;9.694;2023-05-07T11:25:08;9.83;;;6.97;;
77146;SDS011;66121;52.584;9.694;2023-05-07T11:27:34;8.55;;;7.45;;
77146;SDS011;66121;52.584;9.694;2023-05-07T11:29:59;9.77;;;8.13;;
77146;SDS011;66121;52.584;9.694;2023-05-07T11:32:28;11.52;;;7.40;;
77146;SDS011;66121;52.584;9.694;2023-05-07T11:34:54;10.23;;;7.53;;
77146;SDS011;66121;52.584;9.694;2023-05-07T11:37:21;10.05;;;7.88;;
77146;SDS011;66121;52.584;9.694;2023-05-07T11:39:47;10.45;;;7.20;;
77146;SDS011;66121;52.584;9.694;2023-05-07T11:42:28;11.32;;;7.55;;
77146;SDS011;66121;52.584;9.694;2023-05-07T11:47:30;9.15;;;7.28;;
77146;SDS011;66121;52.584;9.694;2023-05-07T11:49:56;10.20;;;7.28;;
77146;SDS011;66121;52.584;9.694;2023-05-07T11:52:22;11.00;;;7.63;;
77146;SDS011;66121;52.584;9.694;2023-05-07T11:54:49;17.50;;;10.50;;
77146;SDS011;66121;52.584;9.694;2023-05-07T11:57:18;10.80;;;8.75;;
77146;SDS011;66121;52.584;9.694;2023-05-07T11:59:43;7.88;;;6.90;;
77146;SDS011;66121;52.584;9.694;2023-05-07T12:02:15;9.57;;;7.57;;
77146;SDS011;66121;52.584;9.694;2023-05-07T12:04:40;9.25;;;7.78;;
77146;SDS011;66121;52.584;9.694;2023-05-07T12:07:12;8.10;;;7.30;;
77146;SDS011;66121;52.584;9.694;2023-05-07T12:09:39;9.15;;;7.43;;
77146;SDS011;66121;52.584;9.694;2023-05-07T12:12:05;10.95;;;7.80;;
77146;SDS011;66121;52.584;9.694;2023-05-07T12:14:31;12.57;;;9.32;;
77146;SDS011;66121;52.584;9.694;2023-05-07T12:16:57;10.25;;;7.88;;
77146;SDS011;66121;52.584;9.694;2023-05-07T12:19:27;12.13;;;7.80;;
77146;SDS011;66121;52.584;9.694;2023-05-07T12:21:53;9.70;;;7.70;;
77146;SDS011;66121;52.584;9.694;2023-05-07T12:24:18;10.13;;;6.95;;
77146;SDS011;66121;52.584;9.694;2023-05-07T12:26:44;8.90;;;7.30;;
77146;SDS011;66121;52.584;9.694;2023-05-07T12:29:09;10.63;;;7.28;;
77146;SDS011;66121;52.584;9.694;2023-05-07T12:31:35;8.88;;;7.28;;
77146;SDS011;66121;52.584;9.694;2023-05-07T12:34:00;10.40;;;7.00;;
77146;SDS011;66121;52.584;9.694;2023-05-07T12:36:26;9.25;;;7.05;;
77146;SDS011;66121;52.584;9.694;2023-05-07T12:38:51;9.65;;;7.32;;
77146;SDS011;66121;52.584;9.694;2023-05-07T12:41:19;9.20;;;6.18;;
77146;SDS011;66121;52.584;9.694;2023-05-07T12:43:50;7.75;;;6.38;;
77146;SDS011;66121;52.584;9.694;2023-05-07T12:46:21;10.77;;;6.97;;
77146;SDS011;66121;52.584;9.694;2023-05-07T12:48:48;13.20;;;6.85;;
77146;SDS011;66121;52.584;9.694;2023-05-07T12:51:13;7.93;;;6.00;;
77146;SDS011;66121;52.584;9.694;2023-05-07T12:53:40;8.60;;;6.38;;
77146;SDS011;66121;52.584;9.694;2023-05-07T12:56:09;8.95;;;5.90;;
77146;SDS011;66121;52.584;9.694;2023-05-07T12:58:34;7.43;;;5.75;;
77146;SDS011;66121;52.584;9.694;2023-05-07T13:01:03;9.00;;;6.55;;
77146;SDS011;66121;52.584;9.694;2023-05-07T13:03:35;9.02;;;6.13;;
77146;SDS011;66121;52.584;9.694;2023-05-07T13:06:02;8.90;;;6.47;;
77146;SDS011;66121;52.584;9.694;2023-05-07T13:08:31;8.55;;;6.28;;
77146;SDS011;66121;52.584;9.694;2023-05-07T13:11:01;10.57;;;7.32;;
77146;SDS011;66121;52.584;9.694;2023-05-07T13:13:29;9.85;;;6.68;;
77146;SDS011;66121;52.584;9.694;2023-05-07T13:15:57;9.40;;;7.05;;
77146;SDS011;66121;52.584;9.694;2023-05-07T13:18:24;8.35;;;6.78;;
77146;SDS011;66121;52.584;9.694;2023-05-07T13:20:51;7.85;;;6.32;;
77146;SDS011;66121;52.584;9.694;2023-05-07T13:23:17;10.05;;;6.65;;
77146;SDS011;66121;52.584;9.694;2023-05-07T13:25:42;8.93;;;6.97;;
77146;SDS011;66121;52.584;9.694;2023-05-07T13:28:08;7.68;;;6.38;;
77146;SDS011;66121;52.584;9.694;2023-05-07T13:30:33;8.98;;;6.85;;
77146;SDS011;66121;52.584;9.694;2023-05-07T13:32:58;9.32;;;6.75;;
77146;SDS011;66121;52.584;9.694;2023-05-07T13:35:24;9.52;;;6.60;;
77146;SDS011;66121;52.584;9.694;2023-05-07T13:37:49;8.88;;;6.93;;
77146;SDS011;66121;52.584;9.694;2023-05-07T13:40:15;8.98;;;7.00;;
77146;SDS011;66121;52.584;9.694;2023-05-07T13:42:40;8.20;;;6.20;;
77146;SDS011;66121;52.584;9.694;2023-05-07T13:45:06;9.20;;;7.00;;
77146;SDS011;66121;52.584;9.694;2023-05-07T13:47:32;11.18;;;7.80;;
77146;SDS011;66121;52.584;9.694;2023-05-07T13:49:57;10.07;;;6.90;;
77146;SDS011;66121;52.584;9.694;2023-05-07T13:52:23;10.33;;;7.20;;
77146;SDS011;66121;52.584;9.694;2023-05-07T13:54:48;10.20;;;7.43;;
77146;SDS011;66121;52.584;9.694;2023-05-07T13:57:13;10.30;;;6.63;;
77146;SDS011;66121;52.584;9.694;2023-05-07T13:59:38;9.00;;;6.90;;
77146;SDS011;66121;52.584;9.694;2023-05-07T14:02:05;9.75;;;7.25;;
77146;SDS011;66121;52.584;9.694;2023-05-07T14:04:31;8.85;;;7.00;;
77146;SDS011;66121;52.584;9.694;2023-05-07T14:06:56;9.25;;;6.95;;
77146;SDS011;66121;52.584;9.694;2023-05-07T14:09:21;9.03;;;6.27;;
77146;SDS011;66121;52.584;9.694;2023-05-07T14:11:47;10.23;;;6.80;;
77146;SDS011;66121;52.584;9.694;2023-05-07T14:14:16;8.75;;;7.05;;
77146;SDS011;66121;52.584;9.694;2023-05-07T14:16:41;9.70;;;6.80;;
77146;SDS011;66121;52.584;9.694;2023-05-07T14:19:06;8.70;;;6.63;;
77146;SDS011;66121;52.584;9.694;2023-05-07T14:21:32;9.97;;;6.50;;
77146;SDS011;66121;52.584;9.694;2023-05-07T14:23:57;12.52;;;7.97;;
77146;SDS011;66121;52.584;9.694;2023-05-07T14:26:22;8.67;;;6.13;;
77146;SDS011;66121;52.584;9.694;2023-05-07T14:28:48;10.57;;;7.22;;
77146;SDS011;66121;52.584;9.694;2023-05-07T14:31:13;9.07;;;6.80;;
77146;SDS011;66121;52.584;9.694;2023-05-07T14:33:39;7.30;;;6.35;;
77146;SDS011;66121;52.584;9.694;2023-05-07T14:36:04;9.80;;;6.57;;
77146;SDS011;66121;52.584;9.694;2023-05-07T14:38:30;7.28;;;5.25;;
77146;SDS011;66121;52.584;9.694;2023-05-07T14:40:57;9.10;;;6.03;;
77146;SDS011;66121;52.584;9.694;2023-05-07T14:43:23;10.73;;;6.18;;
77146;SDS011;66121;52.584;9.694;2023-05-07T14:45:48;7.23;;;5.50;;
77146;SDS011;66121;52.584;9.694;2023-05-07T14:48:13;9.02;;;5.50;;
77146;SDS011;66121;52.584;9.694;2023-05-07T14:50:40;6.93;;;5.40;;